Time;durP1;ratioP1;P1;durP2;ratioP2;P2;SDS_P1;SDS_P2;PMS_P1;PMS_P2;Temp;Humidity;BMP_temperature;BMP_pressure;BME280_temperature;BME280_humidity;BME280_pressure;Samples;Min_cycle;Max_cycle;Signal;HPM_P1;HPM_P2
2023/06/09 00:01:22;;;;;;;;;;;10.80;79.10;;;;;;6164662;23;19924;-89
2023/06/09 00:03:50;;;;;;;;;;;10.80;79.20;;;;;;6124346;23;20373;-91
2023/06/09 00:06:22;;;;;;;;;;;10.80;79.10;;;;;;6161466;23;19939;-92
2023/06/09 00:08:49;;;;;;;;;;;10.80;79.10;;;;;;6120925;23;19922;-87
2023/06/09 00:11:15;;;;;;;;;;;10.80;79.00;;;;;;6188719;23;20331;-88
2023/06/09 00:13:56;;;;;;;;;;;;;;;;;;;;;
2023/06/09 00:16:38;;;;;;;;;;;10.80;79.30;;;;;;6184803;23;19920;-94
2023/06/09 00:19:08;;;;;;;;;;;10.80;79.20;;;;;;6123773;23;19920;-88
2023/06/09 00:21:39;;;;;;;;;;;10.80;79.30;;;;;;6187976;23;19943;-89
2023/06/09 00:24:05;;;;;;;;;;;10.70;79.20;;;;;;6147393;23;19935;-89
2023/06/09 00:26:39;;;;;;;;;;;10.70;79.20;;;;;;6158133;23;19978;-94
2023/06/09 00:29:12;;;;;;;;;;;10.70;79.40;;;;;;6185120;23;19962;-90
2023/06/09 00:31:47;;;;;;;;;;;10.70;79.30;;;;;;6163653;23;20323;-89
2023/06/09 00:34:21;;;;;;;;;;;10.70;79.40;;;;;;6145756;23;19974;-89
2023/06/09 00:36:46;;;;;;;;;;;10.70;79.50;;;;;;6182682;23;19970;-91
2023/06/09 00:39:21;;;;;;;;;;;10.70;79.40;;;;;;6187958;23;19916;-89
2023/06/09 00:41:49;;;;;;;;;;;10.70;79.40;;;;;;6163384;23;20318;-89
2023/06/09 00:44:22;;;;;;;;;;;10.80;79.40;;;;;;6136041;23;19916;-89
2023/06/09 00:46:51;;;;;;;;;;;10.80;79.40;;;;;;6162067;23;19978;-93
2023/06/09 00:49:17;;;;;;;;;;;10.80;79.30;;;;;;6151767;23;19922;-92
2023/06/09 00:51:43;;;;;;;;;;;10.80;79.50;;;;;;6200729;23;19915;-91
2023/06/09 00:54:10;;;;;;;;;;;10.80;79.50;;;;;;6167896;23;19959;-91
2023/06/09 00:56:36;;;;;;;;;;;10.80;79.40;;;;;;6164731;23;19915;-92
2023/06/09 00:59:02;;;;;;;;;;;10.80;79.20;;;;;;6139410;23;19916;-92
2023/06/09 01:01:28;;;;;;;;;;;10.80;79.30;;;;;;6166469;23;19916;-91
2023/06/09 01:03:54;;;;;;;;;;;10.80;79.10;;;;;;6189255;23;20323;-91
2023/06/09 01:06:30;;;;;;;;;;;10.80;79.50;;;;;;6165246;23;19916;-90
2023/06/09 01:08:59;;;;;;;;;;;10.80;79.40;;;;;;6187996;23;19948;-89
2023/06/09 01:11:50;;;;;;;;;;;10.80;79.40;;;;;;6189998;23;19950;-89
2023/06/09 01:14:26;;;;;;;;;;;10.80;79.40;;;;;;6163952;23;19915;-89
2023/06/09 01:17:08;;;;;;;;;;;10.70;79.50;;;;;;6164215;23;19943;-89
2023/06/09 01:19:40;;;;;;;;;;;10.70;79.70;;;;;;6164028;23;19920;-89
2023/06/09 01:22:18;;;;;;;;;;;10.70;79.50;;;;;;6163853;23;19916;-89
2023/06/09 01:24:52;;;;;;;;;;;10.70;79.60;;;;;;6165407;23;19998;-89
2023/06/09 01:27:18;;;;;;;;;;;10.70;79.70;;;;;;6163506;23;20326;-89
2023/06/09 01:29:44;;;;;;;;;;;10.80;79.80;;;;;;6189892;23;19934;-88
2023/06/09 01:32:11;;;;;;;;;;;10.80;79.80;;;;;;6163738;23;19916;-89
2023/06/09 01:34:38;;;;;;;;;;;10.80;80.00;;;;;;6165757;23;20287;-88
2023/06/09 01:37:03;;;;;;;;;;;10.80;79.90;;;;;;6164586;23;19931;-89
2023/06/09 01:39:29;;;;;;;;;;;10.80;80.00;;;;;;6163972;23;20283;-89
2023/06/09 01:41:55;;;;;;;;;;;10.80;79.90;;;;;;6164838;23;20223;-89
2023/06/09 01:44:21;;;;;;;;;;;10.80;79.80;;;;;;6165885;23;19923;-89
2023/06/09 01:46:46;;;;;;;;;;;10.90;79.70;;;;;;6166224;23;19975;-90
2023/06/09 01:49:35;;;;;;;;;;;10.90;79.70;;;;;;6166193;23;19995;-89
2023/06/09 01:52:04;;;;;;;;;;;10.80;79.80;;;;;;6154869;23;19919;-89
2023/06/09 01:54:33;;;;;;;;;;;10.90;80.00;;;;;;6190324;23;20335;-89
2023/06/09 01:57:05;;;;;;;;;;;10.90;79.70;;;;;;6166193;23;20315;-88
2023/06/09 01:59:36;;;;;;;;;;;10.90;79.80;;;;;;6189961;23;19915;-89
2023/06/09 02:02:03;;;;;;;;;;;10.90;79.90;;;;;;6167334;23;19923;-88
2023/06/09 02:04:29;;;;;;;;;;;10.90;79.90;;;;;;6165601;23;19922;-89
2023/06/09 02:06:56;;;;;;;;;;;10.90;80.00;;;;;;6166885;23;19918;-89
2023/06/09 02:09:22;;;;;;;;;;;10.90;79.90;;;;;;6140561;23;19970;-89
2023/06/09 02:11:51;;;;;;;;;;;10.90;80.00;;;;;;6142502;23;19923;-89
2023/06/09 02:14:17;;;;;;;;;;;10.90;80.00;;;;;;6165601;23;19916;-89
2023/06/09 02:16:43;;;;;;;;;;;10.80;79.90;;;;;;6190838;23;19912;-90
2023/06/09 02:19:12;;;;;;;;;;;10.80;80.00;;;;;;6165915;23;19943;-90
2023/06/09 02:21:38;;;;;;;;;;;10.80;80.00;;;;;;6143067;23;20274;-89
2023/06/09 02:24:03;;;;;;;;;;;10.80;79.90;;;;;;6165859;23;19919;-89
2023/06/09 02:26:30;;;;;;;;;;;10.80;80.00;;;;;;6141755;23;19991;-90
2023/06/09 02:28:59;;;;;;;;;;;10.80;80.20;;;;;;6189916;23;19922;-89
2023/06/09 02:31:26;;;;;;;;;;;10.80;80.10;;;;;;6191886;23;19916;-89
2023/06/09 02:33:52;;;;;;;;;;;10.80;80.10;;;;;;6165981;23;20334;-90
2023/06/09 02:36:17;;;;;;;;;;;10.70;80.10;;;;;;6166811;23;19916;-89
2023/06/09 02:38:43;;;;;;;;;;;10.80;80.00;;;;;;6141782;23;19920;-89
2023/06/09 02:41:08;;;;;;;;;;;10.80;80.00;;;;;;6166497;23;19922;-89
2023/06/09 02:43:34;;;;;;;;;;;10.80;80.00;;;;;;6165015;23;19979;-89
2023/06/09 02:46:00;;;;;;;;;;;10.80;80.10;;;;;;6142785;23;19916;-89
2023/06/09 02:48:25;;;;;;;;;;;10.80;80.10;;;;;;6164547;23;19920;-88
2023/06/09 02:50:51;;;;;;;;;;;10.80;80.30;;;;;;6166499;23;19920;-89
2023/06/09 02:53:17;;;;;;;;;;;10.80;80.20;;;;;;6164792;23;19936;-89
2023/06/09 02:55:45;;;;;;;;;;;10.80;80.30;;;;;;6166544;23;19923;-89
2023/06/09 02:58:14;;;;;;;;;;;10.80;80.40;;;;;;6163995;23;19967;-91
2023/06/09 03:00:41;;;;;;;;;;;10.80;80.40;;;;;;6167066;23;19923;-90
2023/06/09 03:03:08;;;;;;;;;;;10.80;80.40;;;;;;6165267;23;19916;-89
2023/06/09 03:05:35;;;;;;;;;;;10.80;80.50;;;;;;6165952;23;20234;-90
2023/06/09 03:08:01;;;;;;;;;;;10.80;80.30;;;;;;6164040;23;19922;-88
2023/06/09 03:10:27;;;;;;;;;;;10.80;80.40;;;;;;6141844;23;19951;-89
2023/06/09 03:12:52;;;;;;;;;;;10.90;80.50;;;;;;6190532;23;19916;-89
2023/06/09 03:15:18;;;;;;;;;;;10.90;80.30;;;;;;6166141;23;20378;-89
2023/06/09 03:17:44;;;;;;;;;;;10.90;80.30;;;;;;6139516;23;19935;-90
2023/06/09 03:20:09;;;;;;;;;;;10.90;80.20;;;;;;6165517;23;19920;-89
2023/06/09 03:22:36;;;;;;;;;;;10.90;80.30;;;;;;6164941;23;19916;-90
2023/06/09 03:25:02;;;;;;;;;;;10.90;80.40;;;;;;6166806;23;19991;-89
2023/06/09 03:27:28;;;;;;;;;;;10.90;80.30;;;;;;6163654;23;19916;-91
2023/06/09 03:29:54;;;;;;;;;;;10.90;80.30;;;;;;6166185;23;20232;-90
2023/06/09 03:32:20;;;;;;;;;;;10.90;80.20;;;;;;6140451;23;19962;-89
2023/06/09 03:34:45;;;;;;;;;;;10.90;80.40;;;;;;6190713;23;19923;-89
2023/06/09 03:37:14;;;;;;;;;;;10.90;80.60;;;;;;6189923;23;20235;-89
2023/06/09 03:39:40;;;;;;;;;;;10.90;80.70;;;;;;6142166;23;19990;-89
2023/06/09 03:42:06;;;;;;;;;;;10.90;80.40;;;;;;6164750;23;19916;-89
2023/06/09 03:44:31;;;;;;;;;;;11.00;80.50;;;;;;6166362;23;19966;-89
2023/06/09 03:46:57;;;;;;;;;;;11.00;80.50;;;;;;6240252;23;19999;-89
2023/06/09 03:49:23;;;;;;;;;;;11.00;80.50;;;;;;6140932;23;20294;-90
2023/06/09 03:51:48;;;;;;;;;;;11.00;80.70;;;;;;6165841;23;19990;-90
2023/06/09 03:54:14;;;;;;;;;;;11.00;80.70;;;;;;6164507;23;20015;-89
2023/06/09 03:56:40;;;;;;;;;;;11.10;80.60;;;;;;6165618;23;20276;-89
2023/06/09 03:59:05;;;;;;;;;;;11.10;80.70;;;;;;6164318;23;20231;-89
2023/06/09 04:01:31;;;;;;;;;;;11.10;80.60;;;;;;6166163;23;20216;-90
2023/06/09 04:03:57;;;;;;;;;;;11.10;80.70;;;;;;6164980;23;19943;-89
2023/06/09 04:06:23;;;;;;;;;;;11.10;80.70;;;;;;6164305;23;19916;-91
2023/06/09 04:08:49;;;;;;;;;;;11.10;80.80;;;;;;6163765;23;19939;-90
2023/06/09 04:11:14;;;;;;;;;;;11.20;80.70;;;;;;6165645;23;20251;-88
2023/06/09 04:13:40;;;;;;;;;;;11.20;80.50;;;;;;6164232;23;19916;-91
2023/06/09 04:16:06;;;;;;;;;;;11.20;80.60;;;;;;6165683;23;19922;-89
2023/06/09 04:18:31;;;;;;;;;;;11.30;80.50;;;;;;6139045;23;19916;-89
2023/06/09 04:20:57;;;;;;;;;;;11.30;80.30;;;;;;6141760;23;20372;-89
2023/06/09 04:23:23;;;;;;;;;;;11.30;80.20;;;;;;6164588;23;19938;-91
2023/06/09 04:25:49;;;;;;;;;;;11.40;80.40;;;;;;6165700;23;20361;-88
2023/06/09 04:28:17;;;;;;;;;;;11.40;80.40;;;;;;6139640;23;19916;-91
2023/06/09 04:30:43;;;;;;;;;;;11.50;80.40;;;;;;6165080;23;19916;-92
2023/06/09 04:33:09;;;;;;;;;;;11.50;80.40;;;;;;6164367;23;19971;-93
2023/06/09 04:35:35;;;;;;;;;;;11.50;80.30;;;;;;6165911;23;19915;-89
2023/06/09 04:38:01;;;;;;;;;;;11.60;80.40;;;;;;6164476;23;19920;-90
2023/06/09 04:40:28;;;;;;;;;;;11.70;80.20;;;;;;6165124;23;19916;-90
2023/06/09 04:42:55;;;;;;;;;;;11.70;80.10;;;;;;6164057;23;19926;-91
2023/06/09 04:45:27;;;;;;;;;;;11.70;80.20;;;;;;6165492;23;19983;-90
2023/06/09 04:47:59;;;;;;;;;;;11.80;80.10;;;;;;6164568;23;19939;-90
2023/06/09 04:50:26;;;;;;;;;;;11.90;80.20;;;;;;6165631;23;19927;-91
2023/06/09 04:52:51;;;;;;;;;;;11.90;80.10;;;;;;6163862;23;19963;-89
2023/06/09 04:55:17;;;;;;;;;;;11.90;80.10;;;;;;6165369;23;19915;-90
2023/06/09 04:57:43;;;;;;;;;;;12.00;80.10;;;;;;6162585;23;20334;-90
2023/06/09 05:00:16;;;;;;;;;;;12.10;80.30;;;;;;6165496;23;19923;-90
2023/06/09 05:02:44;;;;;;;;;;;12.20;80.20;;;;;;6140670;23;19915;-91
2023/06/09 05:05:11;;;;;;;;;;;12.40;80.20;;;;;;6165087;23;19916;-89
2023/06/09 05:07:39;;;;;;;;;;;12.50;80.20;;;;;;6162218;23;19986;-91
2023/06/09 05:10:06;;;;;;;;;;;12.70;80.00;;;;;;6165429;23;19916;-90
2023/06/09 05:12:34;;;;;;;;;;;12.80;80.10;;;;;;6164074;23;19915;-91
2023/06/09 05:15:00;;;;;;;;;;;13.00;79.60;;;;;;6165919;23;20351;-90
2023/06/09 05:17:26;;;;;;;;;;;13.10;79.80;;;;;;6164355;23;19955;-90
2023/06/09 05:19:52;;;;;;;;;;;13.30;79.70;;;;;;6140893;23;19923;-92
2023/06/09 05:22:18;;;;;;;;;;;13.50;78.70;;;;;;6139392;23;19915;-90
2023/06/09 05:24:46;;;;;;;;;;;13.60;78.70;;;;;;6165980;23;19958;-93
2023/06/09 05:27:18;;;;;;;;;;;13.70;78.50;;;;;;6140708;23;19916;-94
2023/06/09 05:29:46;;;;;;;;;;;13.90;78.40;;;;;;6175523;23;20335;-93
2023/06/09 05:32:12;;;;;;;;;;;14.00;78.10;;;;;;6140748;23;19939;-96
2023/06/09 05:34:38;;;;;;;;;;;14.20;78.00;;;;;;6166787;23;19967;-93
2023/06/09 05:47:25;;;;;;;;;;;14.90;76.20;;;;;;6199196;23;19910;-95
2023/06/09 05:50:30;;;;;;;;;;;14.90;75.30;;;;;;6165794;23;19916;-94
2023/06/09 06:02:44;;;;;;;;;;;15.00;75.30;;;;;;6208094;23;20345;-94
2023/06/09 06:05:13;;;;;;;;;;;15.00;75.10;;;;;;6160433;23;19916;-93
2023/06/09 06:07:51;;;;;;;;;;;15.10;75.00;;;;;;6161047;23;19916;-96
2023/06/09 06:10:37;;;;;;;;;;;15.20;75.10;;;;;;6111629;23;19987;-96
2023/06/09 06:13:13;;;;;;;;;;;15.30;75.40;;;;;;6090882;23;20289;-95
2023/06/09 06:22:41;;;;;;;;;;;15.30;74.70;;;;;;6067179;23;19978;-95
2023/06/09 06:25:08;;;;;;;;;;;15.40;74.60;;;;;;6018547;23;20452;-92
2023/06/09 06:28:00;;;;;;;;;;;15.40;74.30;;;;;;6109065;23;19920;-95
2023/06/09 07:40:29;;;;;;;;;;;16.90;72.30;;;;;;6192629;23;20267;-96
2023/06/09 08:00:27;;;;;;;;;;;17.30;71.30;;;;;;5961961;24;19922;-95
2023/06/09 08:36:47;;;;;;;;;;;18.40;68.10;;;;;;6009578;23;19953;-94
2023/06/09 08:39:47;;;;;;;;;;;18.40;69.00;;;;;;6010988;23;20011;-95
2023/06/09 08:42:48;;;;;;;;;;;18.50;68.90;;;;;;5988244;23;20330;-95
2023/06/09 09:05:20;;;;;;;;;;;19.30;67.50;;;;;;5999378;23;19923;-94
2023/06/09 09:11:35;;;;;;;;;;;19.50;66.90;;;;;;5983070;24;19974;-96
2023/06/09 09:28:56;;;;;;;;;;;20.00;66.40;;;;;;5929175;24;19935;-96
2023/06/09 09:32:02;;;;;;;;;;;;;;;;;;;;;
2023/06/09 09:39:08;;;;;;;;;;;;;;;;;;;;;
2023/06/09 10:17:34;;;;;;;;;;;;;;;;;;;;;
2023/06/09 10:24:19;;;;;;;;;;;21.50;62.40;;;;;;6171347;23;19919;-95
2023/06/09 10:33:41;;;;;;;;;;;21.90;61.90;;;;;;6079868;23;20337;-95
2023/06/09 10:36:14;;;;;;;;;;;21.90;61.10;;;;;;6084447;23;19920;-96
2023/06/09 10:39:14;;;;;;;;;;;22.00;61.10;;;;;;6109851;23;19921;-93
2023/06/09 10:45:18;;;;;;;;;;;22.10;61.20;;;;;;6195360;23;20251;-96
2023/06/09 10:55:43;;;;;;;;;;;22.30;60.60;;;;;;5989837;24;20403;-95
2023/06/09 11:01:22;;;;;;;;;;;22.60;60.60;;;;;;6050119;23;20027;-95
2023/06/09 11:07:27;;;;;;;;;;;22.60;59.50;;;;;;6002355;23;20051;-95
2023/06/09 11:10:05;;;;;;;;;;;;;;;;;;;;;
2023/06/09 11:13:23;;;;;;;;;;;22.70;60.70;;;;;;5980020;23;19922;-95
2023/06/09 11:16:18;;;;;;;;;;;22.90;61.20;;;;;;5925364;23;19949;-95
2023/06/09 11:19:23;;;;;;;;;;;23.00;59.70;;;;;;5940905;24;19923;-96
2023/06/09 11:25:43;;;;;;;;;;;23.20;58.70;;;;;;5873482;24;19927;-95
2023/06/09 11:29:04;;;;;;;;;;;23.30;59.50;;;;;;5934063;24;19926;-94
2023/06/09 11:35:20;;;;;;;;;;;23.50;58.90;;;;;;5926234;23;20020;-96
2023/06/09 11:38:38;;;;;;;;;;;23.60;58.20;;;;;;5975436;23;19926;-96
2023/06/09 11:41:20;;;;;;;;;;;;;;;;;;;;;
2023/06/09 11:44:18;;;;;;;;;;;23.70;58.40;;;;;;6011544;23;20412;-95
2023/06/09 11:47:09;;;;;;;;;;;23.80;58.50;;;;;;5974891;24;19957;-95
2023/06/09 11:49:45;;;;;;;;;;;23.90;58.00;;;;;;5941667;23;19970;-96
2023/06/09 11:52:19;;;;;;;;;;;24.00;57.30;;;;;;5922764;23;19923;-96
2023/06/09 11:59:18;;;;;;;;;;;24.00;57.70;;;;;;5843139;24;19928;-94
2023/06/09 12:01:47;;;;;;;;;;;24.00;57.80;;;;;;5860315;24;19994;-95
2023/06/09 12:04:16;;;;;;;;;;;24.20;58.60;;;;;;5890781;24;19952;-95
2023/06/09 12:06:47;;;;;;;;;;;24.20;57.30;;;;;;5910305;23;20246;-95
2023/06/09 12:15:45;;;;;;;;;;;24.40;57.70;;;;;;6071009;23;19929;-94
2023/06/09 12:18:35;;;;;;;;;;;24.50;60.00;;;;;;6141479;23;19958;-94
2023/06/09 12:21:27;;;;;;;;;;;24.60;61.30;;;;;;6135259;23;19928;-95
2023/06/09 12:23:59;;;;;;;;;;;24.50;61.70;;;;;;6129635;23;19924;-96
2023/06/09 12:26:52;;;;;;;;;;;24.50;61.70;;;;;;6160028;23;19920;-95
2023/06/09 12:43:29;;;;;;;;;;;24.20;62.80;;;;;;6070077;23;19921;-95
2023/06/09 12:49:42;;;;;;;;;;;24.00;63.40;;;;;;6037336;23;19921;-95
2023/06/09 13:02:33;;;;;;;;;;;24.20;62.00;;;;;;6010988;23;19988;-93
2023/06/09 13:08:43;;;;;;;;;;;24.10;63.10;;;;;;6007986;23;19952;-96
2023/06/09 13:18:14;;;;;;;;;;;24.20;62.70;;;;;;5844123;24;19962;-96
2023/06/09 13:21:09;;;;;;;;;;;24.00;61.70;;;;;;5796232;24;20012;-95
2023/06/09 13:30:38;;;;;;;;;;;24.20;62.50;;;;;;5894812;24;19931;-95
2023/06/09 13:39:46;;;;;;;;;;;24.10;62.90;;;;;;6014119;23;19978;-96
2023/06/09 13:42:40;;;;;;;;;;;;;;;;;;;;;
2023/06/09 13:59:11;;;;;;;;;;;24.20;62.60;;;;;;5786011;24;20001;-96
2023/06/09 14:12:30;;;;;;;;;;;24.00;63.50;;;;;;5872770;24;19919;-95
2023/06/09 14:18:52;;;;;;;;;;;24.20;63.50;;;;;;5930208;23;19923;-94
2023/06/09 14:21:53;;;;;;;;;;;24.30;63.20;;;;;;5985818;23;19929;-94
2023/06/09 14:24:44;;;;;;;;;;;24.30;63.30;;;;;;6004036;23;19930;-94
2023/06/09 14:27:31;;;;;;;;;;;24.30;62.80;;;;;;6040820;23;19924;-96
2023/06/09 14:30:29;;;;;;;;;;;24.20;62.60;;;;;;6076888;23;19920;-94
2023/06/09 14:53:46;;;;;;;;;;;24.10;61.60;;;;;;6055825;23;19921;-96
2023/06/09 15:13:24;;;;;;;;;;;24.30;60.10;;;;;;6106245;23;19964;-94
2023/06/09 15:19:38;;;;;;;;;;;24.40;59.80;;;;;;6146560;23;20255;-94
2023/06/09 15:22:38;;;;;;;;;;;24.50;58.70;;;;;;6126683;23;19921;-94
2023/06/09 15:28:46;;;;;;;;;;;24.50;59.10;;;;;;6069719;23;19921;-94
2023/06/09 15:31:11;;;;;;;;;;;24.50;58.70;;;;;;6072709;23;19922;-96
2023/06/09 15:37:29;;;;;;;;;;;24.40;58.60;;;;;;6097075;23;19915;-95
2023/06/09 15:43:36;;;;;;;;;;;24.40;58.80;;;;;;6185331;23;19991;-94
2023/06/09 15:49:38;;;;;;;;;;;24.50;58.60;;;;;;6126297;23;19916;-96
2023/06/09 15:52:10;;;;;;;;;;;24.40;57.90;;;;;;6101301;23;19928;-96
2023/06/09 15:58:00;;;;;;;;;;;24.30;58.40;;;;;;6104769;23;19927;-95
2023/06/09 16:00:50;;;;;;;;;;;24.30;58.50;;;;;;6022466;23;20050;-93
2023/06/09 16:07:09;;;;;;;;;;;24.30;58.00;;;;;;6124322;23;19916;-94
2023/06/09 16:10:05;;;;;;;;;;;24.20;58.20;;;;;;6056622;23;19967;-92
2023/06/09 16:12:43;;;;;;;;;;;24.10;58.40;;;;;;6073759;23;19924;-96
2023/06/09 16:21:38;;;;;;;;;;;24.00;58.80;;;;;;6094310;23;19937;-95
2023/06/09 16:51:49;;;;;;;;;;;23.40;60.50;;;;;;5954877;24;19917;-95
2023/06/09 17:01:44;;;;;;;;;;;23.10;61.30;;;;;;5959970;23;19957;-94
2023/06/09 17:18:51;;;;;;;;;;;22.70;61.80;;;;;;5842427;24;20012;-96
2023/06/09 17:28:52;;;;;;;;;;;;;;;;;;;;;
2023/06/09 17:42:05;;;;;;;;;;;21.90;63.00;;;;;;5860746;24;19946;-94
2023/06/09 17:45:00;;;;;;;;;;;21.70;63.00;;;;;;5860969;24;19960;-94
2023/06/09 17:54:57;;;;;;;;;;;21.30;63.30;;;;;;5957561;23;19983;-96
2023/06/09 17:58:00;;;;;;;;;;;21.10;63.90;;;;;;5999962;23;20314;-93
2023/06/09 18:07:21;;;;;;;;;;;20.70;64.20;;;;;;6021576;23;19922;-95
2023/06/09 18:13:59;;;;;;;;;;;20.50;64.40;;;;;;6066250;23;19957;-95
2023/06/09 18:17:17;;;;;;;;;;;20.40;64.60;;;;;;6064616;23;20361;-96
2023/06/09 18:44:18;;;;;;;;;;;19.50;65.70;;;;;;5957944;23;19922;-95
2023/06/09 18:47:21;;;;;;;;;;;19.40;65.90;;;;;;5926869;24;19944;-95
2023/06/09 18:50:08;;;;;;;;;;;19.30;66.10;;;;;;5916694;24;19924;-94
2023/06/09 18:53:02;;;;;;;;;;;;;;;;;;;;;
2023/06/09 18:56:14;;;;;;;;;;;19.10;66.30;;;;;;5901000;24;19937;-96
2023/06/09 18:59:18;;;;;;;;;;;19.00;66.50;;;;;;5857093;24;19968;-94
2023/06/09 19:29:46;;;;;;;;;;;18.10;68.10;;;;;;6039660;23;19950;-93
2023/06/09 19:32:12;;;;;;;;;;;18.00;68.10;;;;;;6014500;23;19922;-92
2023/06/09 19:34:41;;;;;;;;;;;18.00;68.40;;;;;;6043085;23;20045;-95
2023/06/09 20:02:24;;;;;;;;;;;;;;;;;;;;;
2023/06/09 20:46:49;;;;;;;;;;;16.20;72.00;;;;;;6185755;23;19916;-95
2023/06/09 22:34:59;;;;;;;;;;;14.90;71.70;;;;;;6159402;23;19929;-91
2023/06/09 22:37:27;;;;;;;;;;;14.90;71.90;;;;;;6197447;23;19927;-92
2023/06/09 22:39:53;;;;;;;;;;;14.90;71.90;;;;;;6130240;23;19920;-92
2023/06/09 22:42:18;;;;;;;;;;;15.00;72.20;;;;;;6153470;23;19931;-93
2023/06/09 22:44:53;;;;;;;;;;;15.00;72.10;;;;;;6130894;23;19927;-95
2023/06/09 22:47:34;;;;;;;;;;;15.00;72.10;;;;;;6120682;23;19920;-95
